createdAt,value
2018-02-20T00:00:14.469Z,85.86
2018-02-20T00:01:41.421Z,86.18
2018-02-20T00:03:08.570Z,86.15
2018-02-20T00:04:35.660Z,85.54
2018-02-20T00:05:59.043Z,85.77
2018-02-20T00:07:29.660Z,86.15
2018-02-20T00:08:56.774Z,86.50
2018-02-20T00:10:23.502Z,86.51
2018-02-20T00:11:46.560Z,86.14
2018-02-20T00:13:13.764Z,86.06
2018-02-20T00:14:40.688Z,86.07
2018-02-20T00:16:11.683Z,85.92
2018-02-20T00:17:38.694Z,85.90
2018-02-20T00:19:05.749Z,85.98
2018-02-20T00:20:36.863Z,86.09
2018-02-20T00:21:59.439Z,86.04
2018-02-20T00:23:22.715Z,86.05
2018-02-20T00:24:49.935Z,86.31
2018-02-20T00:26:17.218Z,86.03
2018-02-20T00:27:48.077Z,85.97
2018-02-20T00:29:11.146Z,86.02
2018-02-20T00:30:38.343Z,85.86
2018-02-20T00:32:09.093Z,86.35
2018-02-20T00:33:32.378Z,86.25
2018-02-20T00:35:03.218Z,86.51
2018-02-20T00:36:26.181Z,86.32
2018-02-20T00:37:53.269Z,86.14
2018-02-20T00:39:20.269Z,86.32
2018-02-20T00:40:47.167Z,86.36
2018-02-20T00:42:14.316Z,86.49
2018-02-20T00:43:41.521Z,86.76
2018-02-20T00:45:12.409Z,86.65
2018-02-20T00:46:39.607Z,86.39
2018-02-20T00:48:02.365Z,86.53
2018-02-20T00:49:29.500Z,86.28
2018-02-20T00:50:56.588Z,86.07
2018-02-20T00:52:27.802Z,86.27
2018-02-20T00:53:54.897Z,85.94
2018-02-20T00:55:18.150Z,85.80
2018-02-20T00:56:49.026Z,85.72
2018-02-20T00:58:11.971Z,85.51
2018-02-20T00:59:38.896Z,85.64
2018-02-20T01:01:09.968Z,85.71
2018-02-20T01:02:36.983Z,85.62
2018-02-20T01:04:04.036Z,85.38
2018-02-20T01:05:31.089Z,85.42
2018-02-20T01:06:54.381Z,85.72
2018-02-20T01:08:21.476Z,85.95
2018-02-20T01:09:52.611Z,86.01
2018-02-20T01:11:19.715Z,86.13
2018-02-20T01:12:46.928Z,86.37
2018-02-20T01:14:10.023Z,86.13
2018-02-20T01:15:36.753Z,86.16
2018-02-20T01:17:08.021Z,86.27
2018-02-20T01:18:31.259Z,86.07
2018-02-20T01:20:01.895Z,86.09
2018-02-20T01:21:29.236Z,86.05
2018-02-20T01:22:55.868Z,86.16
2018-02-20T01:24:22.920Z,86.12
2018-02-20T01:25:46.056Z,86.36
2018-02-20T01:27:17.149Z,86.48
2018-02-20T01:28:40.297Z,86.51
2018-02-20T01:30:07.461Z,86.80
2018-02-20T01:31:38.560Z,86.75
2018-02-20T01:33:01.871Z,86.84
2018-02-20T01:34:32.863Z,86.74
2018-02-20T01:36:00.021Z,86.85
2018-02-20T01:37:23.223Z,86.88
2018-02-20T01:38:50.421Z,86.66
2018-02-20T01:40:17.543Z,86.72
2018-02-20T01:41:48.204Z,86.95
2018-02-20T01:43:15.273Z,87.15
2018-02-20T01:44:42.115Z,87.07
2018-02-20T01:46:05.023Z,86.96
2018-02-20T01:47:31.845Z,86.70
2018-02-20T01:49:02.835Z,86.72
2018-02-20T01:50:29.843Z,86.81
2018-02-20T01:51:53.051Z,86.88
2018-02-20T01:53:20.203Z,87.21
2018-02-20T01:54:51.289Z,86.83
2018-02-20T01:56:14.372Z,86.69
2018-02-20T01:57:41.576Z,86.62
2018-02-20T01:59:12.491Z,86.36
2018-02-20T02:00:39.311Z,86.22
2018-02-20T02:02:06.518Z,85.95
2018-02-20T02:03:33.419Z,85.76
2018-02-20T02:04:56.468Z,85.18
2018-02-20T02:06:27.790Z,85.05
2018-02-20T02:07:50.868Z,85.15
2018-02-20T02:09:22.129Z,85.05
2018-02-20T02:10:45.244Z,84.94
2018-02-20T02:12:16.573Z,84.85
2018-02-20T02:13:39.817Z,84.72
2018-02-20T02:15:10.864Z,84.70
2018-02-20T02:16:37.861Z,84.65
2018-02-20T02:18:00.963Z,84.68
2018-02-20T02:19:32.009Z,84.47
2018-02-20T02:20:55.041Z,83.96
2018-02-20T02:22:22.262Z,84.16
2018-02-20T02:23:52.849Z,84.10
2018-02-20T02:25:19.708Z,84.07
2018-02-20T02:26:46.663Z,84.42
2018-02-20T02:28:13.808Z,84.58
2018-02-20T02:29:36.987Z,84.28
2018-02-20T02:31:04.145Z,84.56
2018-02-20T02:32:31.331Z,84.46
2018-02-20T02:34:02.103Z,84.44
2018-02-20T02:35:24.828Z,84.67
2018-02-20T02:36:51.774Z,84.92
2018-02-20T02:38:22.783Z,84.86
2018-02-20T02:39:49.457Z,85.33
2018-02-20T02:41:12.650Z,85.02
2018-02-20T02:42:39.412Z,85.04
2018-02-20T02:44:10.417Z,85.25
2018-02-20T02:45:37.131Z,85.39
2018-02-20T02:47:04.348Z,85.31
2018-02-20T02:48:27.514Z,85.25
2018-02-20T02:49:58.641Z,85.38
2018-02-20T02:51:25.555Z,85.09
2018-02-20T02:52:52.755Z,84.96
2018-02-20T02:54:19.803Z,85.16
2018-02-20T02:55:47.051Z,85.56
2018-02-20T02:57:14.238Z,85.43
2018-02-20T02:58:41.238Z,85.42
2018-02-20T03:00:08.378Z,85.51
2018-02-20T03:01:35.571Z,85.86
2018-02-20T03:03:02.868Z,85.80
2018-02-20T03:04:25.763Z,85.92
2018-02-20T03:05:52.723Z,86.08
2018-02-20T03:07:20.011Z,86.05
2018-02-20T03:08:47.089Z,86.19
2018-02-20T03:10:14.143Z,86.39
2018-02-20T03:11:45.547Z,86.32
2018-02-20T03:13:12.637Z,86.68
2018-02-20T03:14:39.662Z,86.49
2018-02-20T03:16:02.784Z,86.47
2018-02-20T03:17:33.647Z,86.53
2018-02-20T03:18:56.741Z,86.33
2018-02-20T03:20:27.658Z,86.41
2018-02-20T03:21:50.740Z,86.53
2018-02-20T03:23:17.698Z,86.71
2018-02-20T03:24:48.863Z,86.61
2018-02-20T03:26:16.066Z,86.71
2018-02-20T03:27:39.428Z,86.96
2018-02-20T03:29:10.438Z,86.96
2018-02-20T03:30:37.646Z,87.02
2018-02-20T03:32:04.952Z,87.16
2018-02-20T03:33:31.973Z,87.14
2018-02-20T03:34:54.912Z,86.98
2018-02-20T03:36:26.050Z,86.89
2018-02-20T03:37:49.216Z,87.12
2018-02-20T03:39:16.173Z,87.55
2018-02-20T03:40:43.088Z,87.67
2018-02-20T03:42:10.113Z,87.80
2018-02-20T03:43:36.892Z,87.98
2018-02-20T03:45:04.046Z,87.99
2018-02-20T03:46:31.183Z,88.06
2018-02-20T03:48:02.166Z,88.24
2018-02-20T03:49:25.124Z,88.43
2018-02-20T03:50:56.226Z,88.63
2018-02-20T03:52:19.322Z,88.67
2018-02-20T03:53:50.390Z,88.80
2018-02-20T03:55:13.205Z,88.85
2018-02-20T03:56:44.441Z,88.71
2018-02-20T03:58:11.191Z,88.73
2018-02-20T03:59:34.320Z,88.70
2018-02-20T04:01:01.148Z,88.65
2018-02-20T04:02:32.169Z,88.60
2018-02-20T04:03:55.158Z,88.36
2018-02-20T04:05:22.086Z,88.29
2018-02-20T04:06:53.095Z,88.25
2018-02-20T04:08:19.840Z,88.24
2018-02-20T04:09:46.830Z,88.46
2018-02-20T04:11:13.602Z,88.44
2018-02-20T04:12:36.589Z,88.50
2018-02-20T04:14:07.588Z,88.47
2018-02-20T04:15:30.611Z,88.52
2018-02-20T04:17:01.820Z,88.49
2018-02-20T04:18:29.070Z,88.50
2018-02-20T04:19:56.169Z,88.51
2018-02-20T04:21:23.080Z,88.50
2018-02-20T04:22:45.933Z,88.58
2018-02-20T04:24:13.069Z,88.51
2018-02-20T04:25:44.383Z,88.64
2018-02-20T04:27:11.273Z,88.54
2018-02-20T04:28:38.308Z,88.53
2018-02-20T04:30:05.267Z,88.59
2018-02-20T04:31:28.301Z,88.61
2018-02-20T04:32:55.373Z,88.66
2018-02-20T04:34:26.302Z,88.67
2018-02-20T04:35:53.694Z,88.49
2018-02-20T04:37:16.839Z,88.53
2018-02-20T04:38:43.996Z,88.51
2018-02-20T04:40:10.750Z,88.51
2018-02-20T04:41:41.475Z,88.56
2018-02-20T04:43:08.568Z,88.27
2018-02-20T04:44:35.331Z,88.23
2018-02-20T04:45:58.430Z,88.21
2018-02-20T04:47:25.370Z,87.97
2018-02-20T04:48:56.478Z,87.82
2018-02-20T04:50:23.669Z,87.86
2018-02-20T04:51:46.850Z,87.86
2018-02-20T04:53:17.950Z,87.92
2018-02-20T04:54:44.968Z,87.98
2018-02-20T04:56:12.024Z,87.87
2018-02-20T04:57:35.162Z,87.82
2018-02-20T04:59:06.388Z,87.83
2018-02-20T05:00:33.312Z,87.69
2018-02-20T05:02:00.060Z,87.75
2018-02-20T05:03:27.431Z,87.72
2018-02-20T05:04:54.465Z,87.50
2018-02-20T05:06:21.635Z,87.53
2018-02-20T05:07:44.785Z,87.58
2018-02-20T05:09:12.046Z,87.63
2018-02-20T05:10:38.749Z,87.59
2018-02-20T05:12:06.081Z,87.58
2018-02-20T05:13:37.110Z,87.68
2018-02-20T05:15:04.180Z,87.49
2018-02-20T05:16:27.421Z,87.39
2018-02-20T05:17:58.404Z,87.32
2018-02-20T05:19:21.167Z,87.25
2018-02-20T05:20:52.113Z,87.36
2018-02-20T05:22:18.800Z,87.00
2018-02-20T05:23:45.664Z,86.98
2018-02-20T05:25:12.468Z,87.11
2018-02-20T05:26:39.730Z,87.25
2018-02-20T05:28:06.572Z,87.05
2018-02-20T05:29:29.573Z,87.17
2018-02-20T05:30:56.396Z,87.34
2018-02-20T05:32:27.437Z,87.30
2018-02-20T05:33:54.268Z,87.02
2018-02-20T05:35:21.464Z,87.03
2018-02-20T05:36:44.357Z,86.76
2018-02-20T05:38:14.962Z,86.61
2018-02-20T05:39:41.697Z,86.67
2018-02-20T05:41:09.778Z,86.55
2018-02-20T05:42:35.698Z,86.52
2018-02-20T05:44:02.841Z,86.28
2018-02-20T05:45:29.784Z,86.38
2018-02-20T05:46:57.072Z,86.39
2018-02-20T05:48:20.068Z,86.65
2018-02-20T05:49:51.290Z,86.73
2018-02-20T05:51:14.380Z,86.61
2018-02-20T05:52:41.348Z,86.69
2018-02-20T05:54:08.438Z,86.83
2018-02-20T05:55:35.553Z,86.71
2018-02-20T05:57:06.124Z,86.39
2018-02-20T05:58:29.378Z,86.56
2018-02-20T05:59:56.431Z,86.38
2018-02-20T06:01:23.412Z,86.80
2018-02-20T06:02:54.588Z,86.86
2018-02-20T06:04:17.487Z,86.48
2018-02-20T06:05:44.285Z,85.92
2018-02-20T06:07:11.514Z,85.54
2018-02-20T06:08:42.155Z,85.49
2018-02-20T06:10:09.265Z,85.06
2018-02-20T06:11:32.268Z,84.70
2018-02-20T06:13:03.095Z,84.24
2018-02-20T06:14:30.210Z,84.28
2018-02-20T06:15:57.335Z,84.62
2018-02-20T06:17:24.282Z,84.84
2018-02-20T06:18:51.316Z,84.19
2018-02-20T06:20:18.597Z,84.70
2018-02-20T06:21:45.896Z,85.01
2018-02-20T06:23:08.703Z,85.31
2018-02-20T06:24:39.694Z,84.99
2018-02-20T06:26:06.428Z,85.04
2018-02-20T06:27:33.627Z,84.83
2018-02-20T06:29:00.623Z,84.90
2018-02-20T06:30:23.809Z,85.09
2018-02-20T06:31:50.740Z,85.27
2018-02-20T06:33:17.613Z,85.11
2018-02-20T06:34:44.606Z,85.35
2018-02-20T06:36:16.711Z,85.70
2018-02-20T06:37:38.885Z,85.91
2018-02-20T06:39:09.994Z,85.73
2018-02-20T06:40:32.978Z,85.50
2018-02-20T06:42:00.117Z,85.43
2018-02-20T06:43:31.163Z,85.40
2018-02-20T06:44:58.289Z,85.03
2018-02-20T06:46:25.178Z,85.03
2018-02-20T06:47:48.421Z,84.87
2018-02-20T06:49:19.566Z,84.77
2018-02-20T06:50:46.656Z,84.85
2018-02-20T06:52:13.724Z,85.31
2018-02-20T06:53:40.735Z,85.57
2018-02-20T06:55:07.641Z,85.65
2018-02-20T06:56:34.855Z,86.05
2018-02-20T06:58:01.696Z,86.18
2018-02-20T06:59:24.843Z,86.22
2018-02-20T07:00:55.987Z,86.25
2018-02-20T07:02:19.043Z,86.43
2018-02-20T07:03:49.972Z,86.68
2018-02-20T07:05:13.048Z,87.01
2018-02-20T07:06:39.757Z,87.31
2018-02-20T07:08:10.755Z,87.66
2018-02-20T07:09:33.947Z,87.99
2018-02-20T07:11:05.197Z,88.28
2018-02-20T07:12:28.214Z,88.31
2018-02-20T07:13:54.920Z,88.37
2018-02-20T07:15:27.118Z,88.55
2018-02-20T07:16:49.435Z,88.55
2018-02-20T07:18:16.525Z,88.51
2018-02-20T07:19:43.570Z,88.58
2018-02-20T07:21:14.416Z,88.49
2018-02-20T07:22:37.565Z,88.61
2018-02-20T07:24:08.624Z,88.53
2018-02-20T07:25:31.814Z,88.54
2018-02-20T07:27:02.642Z,88.61
2018-02-20T07:28:29.637Z,88.59
2018-02-20T07:29:52.715Z,88.51
2018-02-20T07:31:19.388Z,88.38
2018-02-20T07:32:50.570Z,88.35
2018-02-20T07:34:17.566Z,88.31
2018-02-20T07:35:44.793Z,88.42
2018-02-20T07:37:07.880Z,88.26
2018-02-20T07:38:38.778Z,88.25
2018-02-20T07:40:01.861Z,88.31
2018-02-20T07:41:28.992Z,88.39
2018-02-20T07:42:59.811Z,88.40
2018-02-20T07:44:26.747Z,88.32
2018-02-20T07:45:53.514Z,88.20
2018-02-20T07:47:20.512Z,88.26
2018-02-20T07:48:47.646Z,88.04
2018-02-20T07:50:10.608Z,88.17
2018-02-20T07:51:41.513Z,88.07
2018-02-20T07:53:04.482Z,87.82
2018-02-20T07:54:35.512Z,87.97
2018-02-20T07:55:58.570Z,87.82
2018-02-20T07:57:29.390Z,87.78
2018-02-20T07:58:52.538Z,87.72
2018-02-20T08:00:19.505Z,87.57
2018-02-20T08:01:46.477Z,87.74
2018-02-20T08:03:17.522Z,87.79
2018-02-20T08:04:44.719Z,87.64
2018-02-20T08:06:07.724Z,87.50
2018-02-20T08:07:35.127Z,87.54
2018-02-20T08:09:05.996Z,87.55
2018-02-20T08:10:32.918Z,87.66
2018-02-20T08:11:59.960Z,87.37
2018-02-20T08:13:23.187Z,87.13
2018-02-20T08:14:50.281Z,86.99
2018-02-20T08:16:21.366Z,87.03
2018-02-20T08:17:44.341Z,87.32
2018-02-20T08:19:11.506Z,87.67
2018-02-20T08:20:42.564Z,87.81
2018-02-20T08:22:05.616Z,87.85
2018-02-20T08:23:32.751Z,88.10
2018-02-20T08:25:03.792Z,88.19
2018-02-20T08:26:30.821Z,87.81
2018-02-20T08:27:58.022Z,88.04
2018-02-20T08:29:21.206Z,87.82
2018-02-20T08:30:48.208Z,88.00
2018-02-20T08:32:14.980Z,88.16
2018-02-20T08:33:46.049Z,88.11
2018-02-20T08:35:09.086Z,87.01
2018-02-20T08:36:40.268Z,87.26
2018-02-20T08:38:07.449Z,87.46
2018-02-20T08:39:34.413Z,87.78
2018-02-20T08:40:57.566Z,87.20
2018-02-20T08:42:28.860Z,87.03
2018-02-20T08:43:51.876Z,86.84
2018-02-20T08:45:19.082Z,86.58
2018-02-20T08:46:50.265Z,86.68
2018-02-20T08:48:17.499Z,86.79
2018-02-20T08:49:40.798Z,85.89
2018-02-20T08:51:11.726Z,86.33
2018-02-20T08:52:38.666Z,86.03
2018-02-20T08:54:05.745Z,86.08
2018-02-20T08:55:32.788Z,86.88
2018-02-20T08:56:59.716Z,86.57
2018-02-20T08:58:23.057Z,86.20
2018-02-20T08:59:50.145Z,85.48
2018-02-20T09:01:17.150Z,85.16
2018-02-20T09:02:48.272Z,84.61
2018-02-20T09:04:15.458Z,85.06
2018-02-20T09:05:38.403Z,84.47
2018-02-20T09:07:09.642Z,85.07
2018-02-20T09:08:32.848Z,83.04
2018-02-20T09:10:04.131Z,83.97
2018-02-20T09:11:27.099Z,83.75
2018-02-20T09:12:54.176Z,81.88
2018-02-20T09:14:21.361Z,82.36
2018-02-20T09:15:52.458Z,81.37
2018-02-20T09:17:15.361Z,82.31
2018-02-20T09:18:46.340Z,81.74
2018-02-20T09:20:09.100Z,82.09
2018-02-20T09:21:36.347Z,82.36
2018-02-20T09:23:07.371Z,81.40
2018-02-20T09:24:30.588Z,80.07
2018-02-20T09:25:57.627Z,79.92
2018-02-20T09:27:28.672Z,80.07
2018-02-20T09:28:55.792Z,79.81
2018-02-20T09:30:23.319Z,79.50
2018-02-20T09:31:50.559Z,79.21
2018-02-20T09:33:13.294Z,78.93
2018-02-20T09:34:40.330Z,78.89
2018-02-20T09:36:07.495Z,78.84
2018-02-20T09:37:38.724Z,80.04
2018-02-20T09:39:01.759Z,79.23
2018-02-20T09:40:32.822Z,77.80
2018-02-20T09:41:55.898Z,77.74
2018-02-20T09:43:27.140Z,78.06
2018-02-20T09:44:54.291Z,78.36
2018-02-20T09:46:21.814Z,78.36
2018-02-20T09:47:44.796Z,78.06
2018-02-20T09:49:11.942Z,78.83
2018-02-20T09:50:42.656Z,77.87
2018-02-20T09:52:05.717Z,77.01
2018-02-20T09:53:36.877Z,77.57
2018-02-20T09:55:03.820Z,77.94
2018-02-20T09:56:30.769Z,77.40
2018-02-20T09:57:54.007Z,75.79
2018-02-20T09:59:25.252Z,75.09
2018-02-20T10:00:48.065Z,75.65
2018-02-20T10:02:19.339Z,76.77
2018-02-20T10:03:46.554Z,77.56
2018-02-20T10:05:13.707Z,75.92
2018-02-20T10:06:40.555Z,75.13
2018-02-20T10:08:03.667Z,75.41
2018-02-20T10:09:34.776Z,75.07
2018-02-20T10:11:01.793Z,76.00
2018-02-20T10:12:24.999Z,75.28
2018-02-20T10:13:56.212Z,75.41
2018-02-20T10:15:19.311Z,75.10
2018-02-20T10:16:50.525Z,74.63
2018-02-20T10:18:17.607Z,73.61
2018-02-20T10:19:40.262Z,74.26
2018-02-20T10:21:11.253Z,74.75
2018-02-20T10:22:34.376Z,73.57
2018-02-20T10:24:05.356Z,73.13
2018-02-20T10:25:32.546Z,73.15
2018-02-20T10:26:55.436Z,73.97
2018-02-20T10:28:22.824Z,73.77
2018-02-20T10:29:53.806Z,72.59
2018-02-20T10:31:16.821Z,72.44
2018-02-20T10:32:47.665Z,71.86
2018-02-20T10:34:10.577Z,71.59
2018-02-20T10:35:37.648Z,72.26
2018-02-20T10:37:08.883Z,73.12
2018-02-20T10:38:35.801Z,73.14
2018-02-20T10:39:58.812Z,73.77
2018-02-20T10:41:25.947Z,73.00
2018-02-20T10:42:57.222Z,72.96
2018-02-20T10:44:24.335Z,72.72
2018-02-20T10:45:51.569Z,72.14
2018-02-20T10:47:14.647Z,70.49
2018-02-20T10:48:45.676Z,70.11
2018-02-20T10:50:12.820Z,70.54
2018-02-20T10:51:35.954Z,69.63
2018-02-20T10:53:07.184Z,70.74
2018-02-20T10:54:34.385Z,70.57
2018-02-20T10:56:01.232Z,70.18
2018-02-20T10:57:24.571Z,70.32
2018-02-20T10:58:51.774Z,69.79
2018-02-20T11:00:23.017Z,69.35
2018-02-20T11:01:46.124Z,69.10
2018-02-20T11:03:13.436Z,68.93
2018-02-20T11:04:44.655Z,69.03
2018-02-20T11:06:11.626Z,68.87
2018-02-20T11:07:34.861Z,67.56
2018-02-20T11:09:06.198Z,68.23
2018-02-20T11:10:29.202Z,68.32
2018-02-20T11:12:00.357Z,68.43
2018-02-20T11:13:27.595Z,68.32
2018-02-20T11:14:50.810Z,67.28
2018-02-20T11:16:18.100Z,67.42
2018-02-20T11:17:45.260Z,67.26
2018-02-20T11:19:16.473Z,67.12
2018-02-20T11:20:43.507Z,67.09
2018-02-20T11:22:10.414Z,66.38
2018-02-20T11:23:37.632Z,65.74
2018-02-20T11:25:00.588Z,65.44
2018-02-20T11:26:27.715Z,64.48
2018-02-20T11:27:54.872Z,65.15
2018-02-20T11:29:21.994Z,64.80
2018-02-20T11:30:53.080Z,64.53
2018-02-20T11:32:16.424Z,65.93
2018-02-20T11:33:43.346Z,65.96
2018-02-20T11:35:10.425Z,67.06
2018-02-20T11:36:41.536Z,66.86
2018-02-20T11:38:04.698Z,64.54
2018-02-20T11:39:35.828Z,64.98
2018-02-20T11:40:58.771Z,64.56
2018-02-20T11:42:25.893Z,65.45
2018-02-20T11:43:52.901Z,65.21
2018-02-20T11:45:20.018Z,66.67
2018-02-20T11:46:47.177Z,66.20
2018-02-20T11:48:14.375Z,65.71
2018-02-20T11:49:41.569Z,66.42
2018-02-20T11:51:12.534Z,63.67
2018-02-20T11:52:39.779Z,64.37
2018-02-20T11:54:02.420Z,64.62
2018-02-20T11:55:29.571Z,61.96
2018-02-20T11:56:56.658Z,61.34
2018-02-20T11:58:23.727Z,62.20
2018-02-20T11:59:54.865Z,62.51
2018-02-20T12:01:21.701Z,61.42
2018-02-20T12:02:44.945Z,61.94
2018-02-20T12:04:12.312Z,62.41
2018-02-20T12:05:43.475Z,62.56
2018-02-20T12:07:06.488Z,62.35
2018-02-20T12:08:37.557Z,60.08
2018-02-20T12:10:00.740Z,60.28
2018-02-20T12:11:27.740Z,61.40
2018-02-20T12:12:58.750Z,60.34
2018-02-20T12:14:25.858Z,59.64
2018-02-20T12:15:56.132Z,58.69
2018-02-20T12:17:16.357Z,59.48
2018-02-20T12:18:43.573Z,59.61
2018-02-20T12:20:10.744Z,58.68
2018-02-20T12:21:37.932Z,59.13
2018-02-20T12:23:05.207Z,60.61
2018-02-20T12:24:32.302Z,60.13
2018-02-20T12:25:59.188Z,58.21
2018-02-20T12:27:30.272Z,58.03
2018-02-20T12:28:57.294Z,57.55
2018-02-20T12:30:20.540Z,58.08
2018-02-20T12:31:51.765Z,58.01
2018-02-20T12:33:18.967Z,59.16
2018-02-20T12:34:46.233Z,59.15
2018-02-20T12:36:13.512Z,59.39
2018-02-20T12:37:36.691Z,58.70
2018-02-20T12:39:03.837Z,58.53
2018-02-20T12:40:34.629Z,58.93
2018-02-20T12:42:02.016Z,57.54
2018-02-20T12:43:29.100Z,55.62
2018-02-20T12:44:56.415Z,56.16
2018-02-20T12:46:23.496Z,56.71
2018-02-20T12:47:46.583Z,57.04
2018-02-20T12:49:13.930Z,57.66
2018-02-20T12:50:45.224Z,57.27
2018-02-20T12:52:08.442Z,57.20
2018-02-20T12:53:35.745Z,55.56
2018-02-20T12:55:06.951Z,56.34
2018-02-20T12:56:33.897Z,56.41
2018-02-20T12:58:00.911Z,55.98
2018-02-20T12:59:24.267Z,53.21
2018-02-20T13:00:51.248Z,53.99
2018-02-20T13:02:18.406Z,54.48
2018-02-20T13:03:45.796Z,56.54
2018-02-20T13:05:13.141Z,56.29
2018-02-20T13:06:44.536Z,55.62
2018-02-20T13:08:07.799Z,55.04
2018-02-20T13:09:34.888Z,55.19
2018-02-20T13:11:02.076Z,55.82
2018-02-20T13:12:28.998Z,56.32
2018-02-20T13:13:55.983Z,56.72
2018-02-20T13:15:23.326Z,55.31
2018-02-20T13:16:50.575Z,53.06
2018-02-20T13:18:17.699Z,55.26
2018-02-20T13:19:49.020Z,55.20
2018-02-20T13:21:12.342Z,55.57
2018-02-20T13:22:39.482Z,54.84
2018-02-20T13:24:10.010Z,55.47
2018-02-20T13:25:37.236Z,56.08
2018-02-20T13:27:00.665Z,56.00
2018-02-20T13:28:27.456Z,54.55
2018-02-20T13:29:58.894Z,55.77
2018-02-20T13:31:21.948Z,55.23
2018-02-20T13:32:49.291Z,56.14
2018-02-20T13:34:16.411Z,56.16
2018-02-20T13:35:43.241Z,56.33
2018-02-20T13:37:14.387Z,56.84
2018-02-20T13:38:37.861Z,54.96
2018-02-20T13:40:04.973Z,56.56
2018-02-20T13:41:36.182Z,56.44
2018-02-20T13:42:59.076Z,55.35
2018-02-20T13:44:30.256Z,56.27
2018-02-20T13:45:53.365Z,53.86
2018-02-20T13:47:20.525Z,53.42
2018-02-20T13:48:47.617Z,53.91
2018-02-20T13:50:18.918Z,54.16
2018-02-20T13:51:42.099Z,54.05
2018-02-20T13:53:12.595Z,51.19
2018-02-20T13:54:35.901Z,50.68
2018-02-20T13:56:02.877Z,51.93
2018-02-20T13:57:30.198Z,53.06
2018-02-20T13:59:01.377Z,52.43
2018-02-20T14:00:24.638Z,53.07
2018-02-20T14:01:51.848Z,53.03
2018-02-20T14:03:22.844Z,51.55
2018-02-20T14:04:45.821Z,50.97
2018-02-20T14:06:16.927Z,53.53
2018-02-20T14:07:40.260Z,53.03
2018-02-20T14:09:07.235Z,52.71
2018-02-20T14:10:34.207Z,53.23
2018-02-20T14:12:05.328Z,52.36
2018-02-20T14:13:32.572Z,53.88
2018-02-20T14:14:55.685Z,53.76
2018-02-20T14:16:23.028Z,53.69
2018-02-20T14:17:50.254Z,53.97
2018-02-20T14:19:21.581Z,55.70
2018-02-20T14:20:44.786Z,55.91
2018-02-20T14:22:15.744Z,54.69
2018-02-20T14:23:38.797Z,53.45
2018-02-20T14:25:09.595Z,53.28
2018-02-20T14:26:32.845Z,55.12
2018-02-20T14:28:00.092Z,55.52
2018-02-20T14:29:31.097Z,55.33
2018-02-20T14:30:54.362Z,55.87
2018-02-20T14:32:25.662Z,55.01
2018-02-20T14:33:49.081Z,56.29
2018-02-20T14:35:16.169Z,55.79
2018-02-20T14:36:47.408Z,56.14
2018-02-20T14:38:14.661Z,55.10
2018-02-20T14:39:37.532Z,56.75
2018-02-20T14:41:04.847Z,56.18
2018-02-20T14:42:32.130Z,55.88
2018-02-20T14:44:03.054Z,56.85
2018-02-20T14:45:26.196Z,57.03
2018-02-20T14:46:53.240Z,57.31
2018-02-20T14:48:20.449Z,58.23
2018-02-20T14:49:51.735Z,55.95
2018-02-20T14:51:18.884Z,56.02
2018-02-20T14:52:42.077Z,56.18
2018-02-20T14:54:09.172Z,56.21
2018-02-20T14:55:36.300Z,56.48
2018-02-20T14:57:03.435Z,58.44
2018-02-20T14:58:34.602Z,56.67
2018-02-20T14:59:57.772Z,57.34
2018-02-20T15:01:24.898Z,57.11
2018-02-20T15:02:56.098Z,58.33
2018-02-20T15:04:23.237Z,58.17
2018-02-20T15:05:50.515Z,58.18
2018-02-20T15:07:17.867Z,57.77
2018-02-20T15:08:40.672Z,57.26
2018-02-20T15:10:11.664Z,58.92
2018-02-20T15:11:34.726Z,57.60
2018-02-20T15:13:05.823Z,57.62
2018-02-20T15:14:28.833Z,58.05
2018-02-20T15:15:59.718Z,58.60
2018-02-20T15:17:22.845Z,58.74
2018-02-20T15:18:49.666Z,57.47
2018-02-20T15:20:16.856Z,58.35
2018-02-20T15:21:44.076Z,58.33
2018-02-20T15:23:11.187Z,57.74
2018-02-20T15:24:37.964Z,57.81
2018-02-20T15:26:04.901Z,59.20
2018-02-20T15:27:32.299Z,58.79
2018-02-20T15:28:59.450Z,57.96
2018-02-20T15:30:26.526Z,58.16
2018-02-20T15:31:53.877Z,59.43
2018-02-20T15:33:20.849Z,57.54
2018-02-20T15:34:52.045Z,59.34
2018-02-20T15:36:15.317Z,60.19
2018-02-20T15:37:42.084Z,60.48
2018-02-20T15:39:09.461Z,60.19
2018-02-20T15:40:36.480Z,59.47
2018-02-20T15:42:03.599Z,60.14
2018-02-20T15:43:30.662Z,60.41
2018-02-20T15:44:57.864Z,60.84
2018-02-20T15:46:24.950Z,61.04
2018-02-20T15:47:52.237Z,60.96
2018-02-20T15:49:23.295Z,61.67
2018-02-20T15:50:46.640Z,61.82
2018-02-20T15:52:14.059Z,62.32
2018-02-20T15:53:41.149Z,62.38
2018-02-20T15:55:12.306Z,62.94
2018-02-20T15:56:39.761Z,62.67
2018-02-20T15:58:03.027Z,62.76
2018-02-20T15:59:30.239Z,63.22
2018-02-20T16:01:01.016Z,63.21
2018-02-20T16:02:24.226Z,63.83
2018-02-20T16:03:55.516Z,64.00
2018-02-20T16:05:18.888Z,64.38
2018-02-20T16:06:49.808Z,64.52
2018-02-20T16:08:17.091Z,64.52
2018-02-20T16:09:44.264Z,64.38
2018-02-20T16:11:07.599Z,64.95
2018-02-20T16:12:34.331Z,65.03
2018-02-20T16:14:01.566Z,64.36
2018-02-20T16:15:28.320Z,64.93
2018-02-20T16:16:55.398Z,65.48
2018-02-20T16:18:26.413Z,65.87
2018-02-20T16:19:53.370Z,66.29
2018-02-20T16:21:16.061Z,66.77
2018-02-20T16:22:46.792Z,67.84
2018-02-20T16:24:09.661Z,68.58
2018-02-20T16:25:40.926Z,69.11
2018-02-20T16:27:04.090Z,69.45
2018-02-20T16:28:35.255Z,69.69
2018-02-20T16:29:58.455Z,70.20
2018-02-20T16:31:29.688Z,70.69
2018-02-20T16:32:52.343Z,70.97
2018-02-20T16:34:23.573Z,71.19
2018-02-20T16:35:50.840Z,71.21
2018-02-20T16:37:13.930Z,71.72
2018-02-20T16:38:45.226Z,72.06
2018-02-20T16:40:12.263Z,72.55
2018-02-20T16:41:35.516Z,72.79
2018-02-20T16:43:06.674Z,72.72
2018-02-20T16:44:33.759Z,72.86
2018-02-20T16:45:56.947Z,72.92
2018-02-20T16:47:24.215Z,72.85
2018-02-20T16:48:55.535Z,73.06
2018-02-20T16:50:18.790Z,72.95
2018-02-20T16:51:50.869Z,73.04
2018-02-20T16:53:17.096Z,73.32
2018-02-20T16:54:44.250Z,73.45
2018-02-20T16:56:11.209Z,73.49
2018-02-20T16:57:34.331Z,73.64
2018-02-20T16:59:05.565Z,73.92
2018-02-20T17:00:32.515Z,74.00
2018-02-20T17:01:55.541Z,74.09
2018-02-20T17:03:22.491Z,73.83
2018-02-20T17:04:49.784Z,74.00
2018-02-20T17:06:17.047Z,74.23
2018-02-20T17:07:44.333Z,74.21
2018-02-20T17:09:15.559Z,74.61
2018-02-20T17:10:38.737Z,74.69
2018-02-20T17:12:05.597Z,74.82
2018-02-20T17:13:36.638Z,74.97
2018-02-20T17:15:03.700Z,75.12
2018-02-20T17:16:26.296Z,75.20
2018-02-20T17:17:57.398Z,75.42
2018-02-20T17:19:24.562Z,75.40
2018-02-20T17:20:51.843Z,75.53
2018-02-20T17:22:19.061Z,75.62
2018-02-20T17:23:42.223Z,75.87
2018-02-20T17:25:09.434Z,75.97
2018-02-20T17:26:36.156Z,76.05
2018-02-20T17:28:07.195Z,76.25
2018-02-20T17:29:30.197Z,76.44
2018-02-20T17:30:57.248Z,76.57
2018-02-20T17:32:23.529Z,76.69
2018-02-20T17:33:54.524Z,76.81
2018-02-20T17:35:21.703Z,76.78
2018-02-20T17:36:48.881Z,76.90
2018-02-20T17:38:16.115Z,76.94
2018-02-20T17:39:43.262Z,76.91
2018-02-20T17:41:06.437Z,77.04
2018-02-20T17:42:33.526Z,77.10
2018-02-20T17:44:00.437Z,77.33
2018-02-20T17:45:27.433Z,77.42
2018-02-20T17:46:58.586Z,77.38
2018-02-20T17:48:25.752Z,77.51
2018-02-20T17:49:52.781Z,77.56
2018-02-20T17:51:15.380Z,77.77
2018-02-20T17:52:42.531Z,77.98
2018-02-20T17:54:09.715Z,78.22
2018-02-20T17:55:40.961Z,78.25
2018-02-20T17:57:07.890Z,78.44
2018-02-20T17:58:30.804Z,78.48
2018-02-20T18:00:01.618Z,78.60
2018-02-20T18:01:24.738Z,78.70
2018-02-20T18:02:55.742Z,78.70
2018-02-20T18:04:22.448Z,78.63
2018-02-20T18:05:45.496Z,78.38
2018-02-20T18:07:12.799Z,78.34
2018-02-20T18:08:43.992Z,78.30
2018-02-20T18:10:06.970Z,78.28
2018-02-20T18:11:34.135Z,78.28
2018-02-20T18:13:01.094Z,78.26
2018-02-20T18:14:32.097Z,78.23
2018-02-20T18:15:59.105Z,78.02
2018-02-20T18:17:25.929Z,77.98
2018-02-20T18:18:48.669Z,77.95
2018-02-20T18:20:15.546Z,77.72
2018-02-20T18:21:42.283Z,77.44
2018-02-20T18:23:12.832Z,77.21
2018-02-20T18:24:36.043Z,77.29
2018-02-20T18:26:07.275Z,77.16
2018-02-20T18:27:30.064Z,77.09
2018-02-20T18:29:00.491Z,77.16
2018-02-20T18:30:27.592Z,77.29
2018-02-20T18:31:54.635Z,77.46
2018-02-20T18:33:21.675Z,77.53
2018-02-20T18:34:44.877Z,77.73
2018-02-20T18:36:15.998Z,77.85
2018-02-20T18:37:43.105Z,78.03
2018-02-20T18:39:10.221Z,78.20
2018-02-20T18:40:32.869Z,78.25